sensor_id;sensor_type;location;lat;lon;timestamp;pressure;altitude;pressure_sealevel;temperature;humidity
70952;BME280;69214;55.880;37.542;2023-04-26T00:00:26;97627.47;;;10.36;70.74
70952;BME280;69214;55.880;37.542;2023-04-26T00:02:54;97626.94;;;10.40;72.07
70952;BME280;69214;55.880;37.542;2023-04-26T00:05:20;97613.56;;;10.33;72.15
70952;BME280;69214;55.880;37.542;2023-04-26T00:07:45;97619.84;;;10.38;71.76
70952;BME280;69214;55.880;37.542;2023-04-26T00:10:11;97615.44;;;10.43;71.57
70952;BME280;69214;55.880;37.542;2023-04-26T00:12:37;97615.72;;;10.41;72.21
70952;BME280;69214;55.880;37.542;2023-04-26T00:15:03;97608.38;;;10.36;72.93
70952;BME280;69214;55.880;37.542;2023-04-26T00:17:30;97588.53;;;10.21;72.49
70952;BME280;69214;55.880;37.542;2023-04-26T00:19:55;97606.75;;;10.30;71.81
70952;BME280;69214;55.880;37.542;2023-04-26T00:22:23;97605.69;;;10.26;72.72
70952;BME280;69214;55.880;37.542;2023-04-26T00:24:50;97592.84;;;10.17;73.13
70952;BME280;69214;55.880;37.542;2023-04-26T00:27:15;97602.13;;;10.26;72.60
70952;BME280;69214;55.880;37.542;2023-04-26T00:29:41;97590.97;;;10.27;71.84
70952;BME280;69214;55.880;37.542;2023-04-26T00:32:08;97588.50;;;10.26;71.42
70952;BME280;69214;55.880;37.542;2023-04-26T00:34:37;97584.41;;;10.28;70.67
70952;BME280;69214;55.880;37.542;2023-04-26T00:37:04;97587.69;;;10.25;72.49
70952;BME280;69214;55.880;37.542;2023-04-26T00:39:31;97586.06;;;10.29;72.40
70952;BME280;69214;55.880;37.542;2023-04-26T00:41:57;97580.34;;;10.26;73.24
70952;BME280;69214;55.880;37.542;2023-04-26T00:44:23;97578.97;;;10.28;72.36
70952;BME280;69214;55.880;37.542;2023-04-26T00:46:51;97579.78;;;10.29;71.75
70952;BME280;69214;55.880;37.542;2023-04-26T00:49:18;97581.69;;;10.28;72.33
70952;BME280;69214;55.880;37.542;2023-04-26T00:51:47;97566.97;;;10.24;72.16
70952;BME280;69214;55.880;37.542;2023-04-26T00:54:14;97565.34;;;10.28;72.32
70952;BME280;69214;55.880;37.542;2023-04-26T00:56:41;97568.06;;;10.28;73.60
70952;BME280;69214;55.880;37.542;2023-04-26T00:59:07;97554.97;;;10.30;72.21
70952;BME280;69214;55.880;37.542;2023-04-26T01:01:34;97560.16;;;10.32;73.34
70952;BME280;69214;55.880;37.542;2023-04-26T01:04:01;97554.44;;;10.28;71.75
70952;BME280;69214;55.880;37.542;2023-04-26T01:06:34;97556.84;;;10.40;69.16
70952;BME280;69214;55.880;37.542;2023-04-26T01:09:04;97540.78;;;10.38;71.67
70952;BME280;69214;55.880;37.542;2023-04-26T01:11:33;97550.00;;;10.43;72.36
70952;BME280;69214;55.880;37.542;2023-04-26T01:14:01;97532.06;;;10.36;72.99
70952;BME280;69214;55.880;37.542;2023-04-26T01:16:27;97538.00;;;10.44;72.43
70952;BME280;69214;55.880;37.542;2023-04-26T01:18:53;97525.22;;;10.39;71.84
70952;BME280;69214;55.880;37.542;2023-04-26T01:21:23;97519.19;;;10.42;70.71
70952;BME280;69214;55.880;37.542;2023-04-26T01:23:50;97517.28;;;10.43;71.72
70952;BME280;69214;55.880;37.542;2023-04-26T01:26:17;97527.63;;;10.46;71.86
70952;BME280;69214;55.880;37.542;2023-04-26T01:28:43;97511.00;;;10.42;71.18
70952;BME280;69214;55.880;37.542;2023-04-26T01:31:09;97493.38;;;10.29;72.67
70952;BME280;69214;55.880;37.542;2023-04-26T01:33:34;97512.09;;;10.46;72.04
70952;BME280;69214;55.880;37.542;2023-04-26T01:36:00;97509.63;;;10.45;71.53
70952;BME280;69214;55.880;37.542;2023-04-26T01:38:27;97507.72;;;10.45;72.02
70952;BME280;69214;55.880;37.542;2023-04-26T01:40:53;97504.19;;;10.45;72.08
70952;BME280;69214;55.880;37.542;2023-04-26T01:43:19;97497.38;;;10.42;71.08
70952;BME280;69214;55.880;37.542;2023-04-26T01:45:48;97497.63;;;10.46;70.29
70952;BME280;69214;55.880;37.542;2023-04-26T01:48:29;97492.44;;;10.49;71.28
70952;BME280;69214;55.880;37.542;2023-04-26T01:50:55;97492.41;;;10.54;71.17
70952;BME280;69214;55.880;37.542;2023-04-26T01:53:21;97498.13;;;10.58;70.88
70952;BME280;69214;55.880;37.542;2023-04-26T01:55:47;97494.59;;;10.57;71.52
70952;BME280;69214;55.880;37.542;2023-04-26T01:58:12;97495.13;;;10.54;72.44
70952;BME280;69214;55.880;37.542;2023-04-26T02:00:38;97482.34;;;10.50;72.56
70952;BME280;69214;55.880;37.542;2023-04-26T02:03:04;97483.72;;;10.47;73.12
70952;BME280;69214;55.880;37.542;2023-04-26T02:05:29;97474.75;;;10.42;71.80
70952;BME280;69214;55.880;37.542;2023-04-26T02:07:55;97470.94;;;10.43;72.59
70952;BME280;69214;55.880;37.542;2023-04-26T02:10:21;97469.28;;;10.42;72.91
70952;BME280;69214;55.880;37.542;2023-04-26T02:12:47;97469.28;;;10.42;71.92
70952;BME280;69214;55.880;37.542;2023-04-26T02:15:13;97441.28;;;10.31;71.81
70952;BME280;69214;55.880;37.542;2023-04-26T02:17:39;97456.75;;;10.41;72.40
70952;BME280;69214;55.880;37.542;2023-04-26T02:20:05;97460.56;;;10.45;73.46
70952;BME280;69214;55.880;37.542;2023-04-26T02:22:34;97431.75;;;10.28;72.48
70952;BME280;69214;55.880;37.542;2023-04-26T02:25:00;97449.09;;;10.48;72.49
70952;BME280;69214;55.880;37.542;2023-04-26T02:27:29;97435.75;;;10.41;72.53
70952;BME280;69214;55.880;37.542;2023-04-26T02:29:55;97432.75;;;10.43;72.31
70952;BME280;69214;55.880;37.542;2023-04-26T02:32:20;97449.66;;;10.45;73.00
70952;BME280;69214;55.880;37.542;2023-04-26T02:34:46;97435.47;;;10.43;72.84
70952;BME280;69214;55.880;37.542;2023-04-26T02:37:12;97448.00;;;10.49;73.40
70952;BME280;69214;55.880;37.542;2023-04-26T02:39:38;97443.34;;;10.49;72.48
70952;BME280;69214;55.880;37.542;2023-04-26T02:42:08;97441.44;;;10.50;70.89
70952;BME280;69214;55.880;37.542;2023-04-26T02:44:35;97435.19;;;10.44;72.92
70952;BME280;69214;55.880;37.542;2023-04-26T02:47:02;97434.38;;;10.44;73.16
70952;BME280;69214;55.880;37.542;2023-04-26T02:49:29;97437.09;;;10.44;73.80
70952;BME280;69214;55.880;37.542;2023-04-26T02:51:55;97427.31;;;10.43;73.87
70952;BME280;69214;55.880;37.542;2023-04-26T02:54:22;97420.22;;;10.42;73.06
70952;BME280;69214;55.880;37.542;2023-04-26T02:56:48;97421.09;;;10.37;73.24
70952;BME280;69214;55.880;37.542;2023-04-26T02:59:14;97425.09;;;10.45;73.11
70952;BME280;69214;55.880;37.542;2023-04-26T03:01:41;97417.81;;;10.40;73.43
70952;BME280;69214;55.880;37.542;2023-04-26T03:04:07;97424.00;;;10.46;73.63
70952;BME280;69214;55.880;37.542;2023-04-26T03:06:34;97416.91;;;10.50;73.07
70952;BME280;69214;55.880;37.542;2023-04-26T03:09:00;97408.44;;;10.51;72.93
70952;BME280;69214;55.880;37.542;2023-04-26T03:11:25;97421.81;;;10.48;72.91
70952;BME280;69214;55.880;37.542;2023-04-26T03:13:51;97402.56;;;10.34;71.91
70952;BME280;69214;55.880;37.542;2023-04-26T03:16:21;97406.59;;;10.42;71.04
70952;BME280;69214;55.880;37.542;2023-04-26T03:18:48;97413.38;;;10.44;72.19
70952;BME280;69214;55.880;37.542;2023-04-26T03:21:14;97408.50;;;10.41;73.46
70952;BME280;69214;55.880;37.542;2023-04-26T03:23:41;97409.31;;;10.42;72.81
70952;BME280;69214;55.880;37.542;2023-04-26T03:26:07;97405.22;;;10.44;72.76
70952;BME280;69214;55.880;37.542;2023-04-26T03:28:32;97387.28;;;10.38;72.71
70952;BME280;69214;55.880;37.542;2023-04-26T03:30:58;97401.06;;;10.52;73.04
70952;BME280;69214;55.880;37.542;2023-04-26T03:33:24;97404.34;;;10.54;72.70
70952;BME280;69214;55.880;37.542;2023-04-26T03:35:50;97396.41;;;10.57;72.90
70952;BME280;69214;55.880;37.542;2023-04-26T03:38:16;97398.84;;;10.59;73.85
70952;BME280;69214;55.880;37.542;2023-04-26T03:40:42;97401.28;;;10.60;73.49
70952;BME280;69214;55.880;37.542;2023-04-26T03:43:08;97398.28;;;10.62;74.02
70952;BME280;69214;55.880;37.542;2023-04-26T03:45:33;97396.09;;;10.64;72.32
70952;BME280;69214;55.880;37.542;2023-04-26T03:47:59;97393.88;;;10.66;72.55
70952;BME280;69214;55.880;37.542;2023-04-26T03:50:25;97389.81;;;10.63;73.00
70952;BME280;69214;55.880;37.542;2023-04-26T03:52:51;97390.88;;;10.67;73.67
70952;BME280;69214;55.880;37.542;2023-04-26T03:55:17;97385.47;;;10.62;73.18
70952;BME280;69214;55.880;37.542;2023-04-26T03:57:42;97394.97;;;10.70;73.50
70952;BME280;69214;55.880;37.542;2023-04-26T04:00:09;97388.41;;;10.71;74.06
70952;BME280;69214;55.880;37.542;2023-04-26T04:02:41;97381.06;;;10.66;73.12
70952;BME280;69214;55.880;37.542;2023-04-26T04:05:08;97389.22;;;10.71;74.59
70952;BME280;69214;55.880;37.542;2023-04-26T04:07:35;97392.19;;;10.75;73.49
70952;BME280;69214;55.880;37.542;2023-04-26T04:10:01;97374.97;;;10.80;74.31
70952;BME280;69214;55.880;37.542;2023-04-26T04:12:29;97385.81;;;10.90;73.33
70952;BME280;69214;55.880;37.542;2023-04-26T04:14:54;97381.13;;;10.95;72.63
70952;BME280;69214;55.880;37.542;2023-04-26T04:17:22;97389.84;;;10.97;72.08
70952;BME280;69214;55.880;37.542;2023-04-26T04:19:48;97377.59;;;10.95;73.86
70952;BME280;69214;55.880;37.542;2023-04-26T04:22:14;97386.81;;;10.99;74.01
70952;BME280;69214;55.880;37.542;2023-04-26T04:24:40;97371.31;;;10.94;73.15
70952;BME280;69214;55.880;37.542;2023-04-26T04:27:07;97372.03;;;11.05;72.54
70952;BME280;69214;55.880;37.542;2023-04-26T04:29:34;97380.72;;;11.12;72.51
70952;BME280;69214;55.880;37.542;2023-04-26T04:31:59;97374.69;;;11.15;73.50
70952;BME280;69214;55.880;37.542;2023-04-26T04:34:26;97373.28;;;11.18;73.23
70952;BME280;69214;55.880;37.542;2023-04-26T04:36:53;97376.53;;;11.20;72.69
70952;BME280;69214;55.880;37.542;2023-04-26T04:39:19;97366.19;;;11.17;72.64
70952;BME280;69214;55.880;37.542;2023-04-26T04:41:45;97374.63;;;11.20;73.28
70952;BME280;69214;55.880;37.542;2023-04-26T04:44:15;97346.91;;;11.08;72.88
70952;BME280;69214;55.880;37.542;2023-04-26T04:46:42;97380.34;;;11.24;72.97
70952;BME280;69214;55.880;37.542;2023-04-26T04:49:08;97372.13;;;11.24;71.79
70952;BME280;69214;55.880;37.542;2023-04-26T04:51:34;97367.84;;;11.18;72.94
70952;BME280;69214;55.880;37.542;2023-04-26T04:54:14;97375.69;;;11.24;70.64
70952;BME280;69214;55.880;37.542;2023-04-26T04:56:40;97375.97;;;11.23;72.26
70952;BME280;69214;55.880;37.542;2023-04-26T04:59:07;97332.47;;;11.02;72.58
70952;BME280;69214;55.880;37.542;2023-04-26T05:01:34;97369.31;;;11.34;73.05
70952;BME280;69214;55.880;37.542;2023-04-26T05:04:05;97364.31;;;11.41;72.71
70952;BME280;69214;55.880;37.542;2023-04-26T05:06:35;97370.91;;;11.40;73.15
70952;BME280;69214;55.880;37.542;2023-04-26T05:09:01;97326.53;;;11.24;72.10
70952;BME280;69214;55.880;37.542;2023-04-26T05:11:27;97338.69;;;11.37;72.58
70952;BME280;69214;55.880;37.542;2023-04-26T05:13:53;97368.47;;;11.62;72.17
70952;BME280;69214;55.880;37.542;2023-04-26T05:16:19;97373.06;;;11.67;71.62
70952;BME280;69214;55.880;37.542;2023-04-26T05:18:46;97366.50;;;11.68;72.55
70952;BME280;69214;55.880;37.542;2023-04-26T05:21:12;97352.94;;;11.58;72.49
70952;BME280;69214;55.880;37.542;2023-04-26T05:23:38;97378.25;;;11.68;71.62
70952;BME280;69214;55.880;37.542;2023-04-26T05:26:05;97373.81;;;11.73;71.47
70952;BME280;69214;55.880;37.542;2023-04-26T05:29:00;97366.94;;;11.80;71.65
70952;BME280;69214;55.880;37.542;2023-04-26T05:31:38;97379.97;;;11.88;71.23
70952;BME280;69214;55.880;37.542;2023-04-26T05:34:12;97376.34;;;11.93;71.46
70952;BME280;69214;55.880;37.542;2023-04-26T05:36:39;97373.28;;;11.99;71.39
70952;BME280;69214;55.880;37.542;2023-04-26T05:39:05;97368.16;;;11.93;71.98
70952;BME280;69214;55.880;37.542;2023-04-26T05:41:32;97372.16;;;12.00;71.60
70952;BME280;69214;55.880;37.542;2023-04-26T05:43:58;97375.66;;;12.06;72.13
70952;BME280;69214;55.880;37.542;2023-04-26T05:46:24;97381.00;;;12.16;71.80
70952;BME280;69214;55.880;37.542;2023-04-26T05:48:50;97360.00;;;12.30;70.72
70952;BME280;69214;55.880;37.542;2023-04-26T05:51:16;97364.16;;;12.47;70.49
70952;BME280;69214;55.880;37.542;2023-04-26T05:53:42;97362.38;;;12.56;70.96
70952;BME280;69214;55.880;37.542;2023-04-26T05:56:07;97358.31;;;12.72;70.21
70952;BME280;69214;55.880;37.542;2023-04-26T05:58:33;97365.38;;;12.92;69.42
70952;BME280;69214;55.880;37.542;2023-04-26T06:01:01;97362.50;;;13.02;69.11
70952;BME280;69214;55.880;37.542;2023-04-26T06:03:27;97359.22;;;13.19;68.79
70952;BME280;69214;55.880;37.542;2023-04-26T06:05:53;97363.03;;;13.37;67.86
70952;BME280;69214;55.880;37.542;2023-04-26T06:08:20;97348.31;;;13.33;68.20
70952;BME280;69214;55.880;37.542;2023-04-26T06:10:48;97357.25;;;13.38;67.66
70952;BME280;69214;55.880;37.542;2023-04-26T06:13:14;97368.72;;;13.40;68.94
70952;BME280;69214;55.880;37.542;2023-04-26T06:15:39;97376.25;;;13.48;67.83
70952;BME280;69214;55.880;37.542;2023-04-26T06:18:05;97375.53;;;13.56;68.38
70952;BME280;69214;55.880;37.542;2023-04-26T06:20:32;97362.97;;;13.69;67.43
70952;BME280;69214;55.880;37.542;2023-04-26T06:22:57;97369.38;;;13.92;67.39
70952;BME280;69214;55.880;37.542;2023-04-26T06:25:23;97371.28;;;14.05;67.24
70952;BME280;69214;55.880;37.542;2023-04-26T06:27:49;97374.53;;;14.21;66.53
70952;BME280;69214;55.880;37.542;2023-04-26T06:30:15;97364.47;;;14.16;65.52
70952;BME280;69214;55.880;37.542;2023-04-26T06:32:45;97373.22;;;14.18;66.65
70952;BME280;69214;55.880;37.542;2023-04-26T06:35:10;97373.81;;;14.29;66.29
70952;BME280;69214;55.880;37.542;2023-04-26T06:37:36;97357.56;;;14.33;67.06
70952;BME280;69214;55.880;37.542;2023-04-26T06:40:03;97369.53;;;14.50;66.20
70952;BME280;69214;55.880;37.542;2023-04-26T06:42:30;97375.41;;;14.57;65.66
70952;BME280;69214;55.880;37.542;2023-04-26T06:45:19;97373.19;;;14.60;65.54
70952;BME280;69214;55.880;37.542;2023-04-26T06:47:45;97371.25;;;14.60;66.16
70952;BME280;69214;55.880;37.542;2023-04-26T06:50:11;97378.97;;;14.58;64.69
70952;BME280;69214;55.880;37.542;2023-04-26T06:52:37;97372.16;;;14.55;65.50
70952;BME280;69214;55.880;37.542;2023-04-26T06:55:03;97379.72;;;14.50;66.08
70952;BME280;69214;55.880;37.542;2023-04-26T06:57:31;97372.59;;;14.49;65.70
70952;BME280;69214;55.880;37.542;2023-04-26T06:59:56;97381.72;;;14.58;66.32
70952;BME280;69214;55.880;37.542;2023-04-26T07:02:22;97388.41;;;14.66;65.33
70952;BME280;69214;55.880;37.542;2023-04-26T07:04:49;97400.72;;;14.68;66.20
70952;BME280;69214;55.880;37.542;2023-04-26T07:07:15;97381.59;;;14.63;65.63
70952;BME280;69214;55.880;37.542;2023-04-26T07:09:42;97388.81;;;14.73;64.61
70952;BME280;69214;55.880;37.542;2023-04-26T07:12:10;97390.03;;;14.67;64.51
70952;BME280;69214;55.880;37.542;2023-04-26T07:14:38;97382.94;;;14.52;65.50
70952;BME280;69214;55.880;37.542;2023-04-26T07:17:06;97387.63;;;14.38;66.38
70952;BME280;69214;55.880;37.542;2023-04-26T07:19:32;97393.72;;;14.35;66.00
70952;BME280;69214;55.880;37.542;2023-04-26T07:21:57;97400.72;;;14.41;65.47
70952;BME280;69214;55.880;37.542;2023-04-26T07:24:23;97403.59;;;14.36;66.57
70952;BME280;69214;55.880;37.542;2023-04-26T07:26:49;97393.22;;;14.33;65.49
70952;BME280;69214;55.880;37.542;2023-04-26T07:29:14;97404.41;;;14.36;66.81
70952;BME280;69214;55.880;37.542;2023-04-26T07:31:40;97399.66;;;14.42;65.66
70952;BME280;69214;55.880;37.542;2023-04-26T07:34:06;97392.31;;;14.37;65.63
70952;BME280;69214;55.880;37.542;2023-04-26T07:36:31;97398.22;;;14.44;66.53
70952;BME280;69214;55.880;37.542;2023-04-26T07:38:57;97400.13;;;14.57;65.52
70952;BME280;69214;55.880;37.542;2023-04-26T07:41:23;97406.41;;;14.72;64.76
70952;BME280;69214;55.880;37.542;2023-04-26T07:43:48;97390.50;;;14.82;65.11
70952;BME280;69214;55.880;37.542;2023-04-26T07:46:14;97406.25;;;15.13;63.45
70952;BME280;69214;55.880;37.542;2023-04-26T07:48:40;97404.88;;;15.24;63.51
70952;BME280;69214;55.880;37.542;2023-04-26T07:51:07;97409.38;;;15.42;63.72
70952;BME280;69214;55.880;37.542;2023-04-26T07:53:33;97415.06;;;15.77;63.92
70952;BME280;69214;55.880;37.542;2023-04-26T07:55:59;97418.50;;;15.82;62.15
70952;BME280;69214;55.880;37.542;2023-04-26T07:58:25;97412.97;;;15.74;62.35
70952;BME280;69214;55.880;37.542;2023-04-26T08:00:51;97418.56;;;15.60;63.47
70952;BME280;69214;55.880;37.542;2023-04-26T08:03:17;97417.75;;;15.60;62.84
70952;BME280;69214;55.880;37.542;2023-04-26T08:05:43;97400.19;;;15.47;62.95
70952;BME280;69214;55.880;37.542;2023-04-26T08:08:09;97411.59;;;15.63;62.80
70952;BME280;69214;55.880;37.542;2023-04-26T08:10:35;97418.00;;;15.80;62.59
70952;BME280;69214;55.880;37.542;2023-04-26T08:13:02;97424.84;;;15.92;62.34
70952;BME280;69214;55.880;37.542;2023-04-26T08:15:28;97424.22;;;15.95;62.02
70952;BME280;69214;55.880;37.542;2023-04-26T08:17:54;97415.31;;;15.89;61.68
70952;BME280;69214;55.880;37.542;2023-04-26T08:20:19;97418.81;;;15.81;62.81
70952;BME280;69214;55.880;37.542;2023-04-26T08:22:45;97426.13;;;15.85;62.62
70952;BME280;69214;55.880;37.542;2023-04-26T08:25:11;97427.06;;;16.12;61.74
70952;BME280;69214;55.880;37.542;2023-04-26T08:27:37;97429.41;;;16.36;60.28
70952;BME280;69214;55.880;37.542;2023-04-26T08:30:04;97414.34;;;16.33;60.32
70952;BME280;69214;55.880;37.542;2023-04-26T08:32:31;97427.75;;;16.26;61.28
70952;BME280;69214;55.880;37.542;2023-04-26T08:34:58;97408.66;;;16.30;60.74
70952;BME280;69214;55.880;37.542;2023-04-26T08:37:24;97438.53;;;16.62;59.52
70952;BME280;69214;55.880;37.542;2023-04-26T08:39:50;97434.81;;;16.58;59.81
70952;BME280;69214;55.880;37.542;2023-04-26T08:42:19;97400.53;;;16.25;59.33
70952;BME280;69214;55.880;37.542;2023-04-26T08:44:46;97442.72;;;16.51;60.03
70952;BME280;69214;55.880;37.542;2023-04-26T08:47:17;97436.91;;;16.61;59.09
70952;BME280;69214;55.880;37.542;2023-04-26T08:49:44;97433.44;;;16.87;58.87
70952;BME280;69214;55.880;37.542;2023-04-26T08:52:17;97444.81;;;17.11;58.98
70952;BME280;69214;55.880;37.542;2023-04-26T08:54:49;97425.66;;;17.23;58.28
70952;BME280;69214;55.880;37.542;2023-04-26T08:57:17;97435.41;;;17.12;58.24
70952;BME280;69214;55.880;37.542;2023-04-26T08:59:43;97435.69;;;16.84;59.61
70952;BME280;69214;55.880;37.542;2023-04-26T09:02:09;97444.13;;;16.97;59.81
70952;BME280;69214;55.880;37.542;2023-04-26T09:04:39;97432.63;;;17.21;59.26
70952;BME280;69214;55.880;37.542;2023-04-26T09:07:06;97441.38;;;17.57;58.31
70952;BME280;69214;55.880;37.542;2023-04-26T09:09:41;97438.56;;;17.92;56.24
70952;BME280;69214;55.880;37.542;2023-04-26T09:12:07;97440.88;;;17.81;57.00
70952;BME280;69214;55.880;37.542;2023-04-26T09:14:33;97441.88;;;17.68;57.95
70952;BME280;69214;55.880;37.542;2023-04-26T09:16:59;97449.16;;;17.72;57.52
70952;BME280;69214;55.880;37.542;2023-04-26T09:19:38;97447.19;;;17.82;56.41
70952;BME280;69214;55.880;37.542;2023-04-26T09:22:05;97437.31;;;17.72;57.31
70952;BME280;69214;55.880;37.542;2023-04-26T09:24:48;97442.94;;;17.93;56.02
70952;BME280;69214;55.880;37.542;2023-04-26T09:27:19;97450.34;;;18.18;56.18
70952;BME280;69214;55.880;37.542;2023-04-26T09:30:13;97445.09;;;18.25;55.63
70952;BME280;69214;55.880;37.542;2023-04-26T09:35:30;97451.00;;;18.15;55.32
70952;BME280;69214;55.880;37.542;2023-04-26T09:37:59;97453.66;;;17.94;56.78
70952;BME280;69214;55.880;37.542;2023-04-26T09:40:29;97447.38;;;17.76;56.68
70952;BME280;69214;55.880;37.542;2023-04-26T09:43:08;97457.59;;;17.67;56.53
70952;BME280;69214;55.880;37.542;2023-04-26T09:46:02;97461.50;;;17.32;56.54
70952;BME280;69214;55.880;37.542;2023-04-26T09:48:29;97465.22;;;17.10;58.62
70952;BME280;69214;55.880;37.542;2023-04-26T09:56:14;97467.97;;;17.19;56.98
70952;BME280;69214;55.880;37.542;2023-04-26T10:01:15;97454.19;;;17.62;56.34
70952;BME280;69214;55.880;37.542;2023-04-26T10:03:42;97472.94;;;18.11;56.29
70952;BME280;69214;55.880;37.542;2023-04-26T10:06:08;97467.44;;;18.41;55.22
70952;BME280;69214;55.880;37.542;2023-04-26T10:08:35;97466.91;;;18.56;54.81
70952;BME280;69214;55.880;37.542;2023-04-26T10:11:03;97472.41;;;18.56;54.85
70952;BME280;69214;55.880;37.542;2023-04-26T10:13:33;97471.28;;;18.57;54.01
70952;BME280;69214;55.880;37.542;2023-04-26T10:16:00;97464.66;;;18.50;54.81
70952;BME280;69214;55.880;37.542;2023-04-26T10:18:32;97474.84;;;18.58;54.53
70952;BME280;69214;55.880;37.542;2023-04-26T10:21:01;97481.75;;;18.81;54.51
70952;BME280;69214;55.880;37.542;2023-04-26T10:23:28;97488.78;;;18.99;54.10
70952;BME280;69214;55.880;37.542;2023-04-26T10:25:54;97490.22;;;19.05;54.08
70952;BME280;69214;55.880;37.542;2023-04-26T10:31:04;97492.38;;;19.00;52.80
70952;BME280;69214;55.880;37.542;2023-04-26T10:33:32;97485.94;;;18.87;52.82
70952;BME280;69214;55.880;37.542;2023-04-26T10:36:12;97497.72;;;18.75;52.71
70952;BME280;69214;55.880;37.542;2023-04-26T10:38:41;97493.03;;;18.67;53.31
70952;BME280;69214;55.880;37.542;2023-04-26T10:41:27;97505.38;;;18.99;52.82
70952;BME280;69214;55.880;37.542;2023-04-26T10:43:54;97510.88;;;19.29;52.80
70952;BME280;69214;55.880;37.542;2023-04-26T10:46:34;97505.91;;;19.64;52.04
70952;BME280;69214;55.880;37.542;2023-04-26T10:49:26;97508.19;;;19.83;51.95
70952;BME280;69214;55.880;37.542;2023-04-26T10:52:09;97503.41;;;19.71;51.59
70952;BME280;69214;55.880;37.542;2023-04-26T10:57:14;97494.06;;;19.13;52.60
70952;BME280;69214;55.880;37.542;2023-04-26T11:02:56;97515.91;;;19.56;51.86
70952;BME280;69214;55.880;37.542;2023-04-26T11:05:37;97514.16;;;20.05;50.99
70952;BME280;69214;55.880;37.542;2023-04-26T11:08:17;97515.78;;;20.52;50.35
70952;BME280;69214;55.880;37.542;2023-04-26T11:11:12;97503.91;;;20.76;49.27
70952;BME280;69214;55.880;37.542;2023-04-26T11:13:41;97496.72;;;20.87;48.40
70952;BME280;69214;55.880;37.542;2023-04-26T11:16:15;97524.81;;;20.73;48.59
70952;BME280;69214;55.880;37.542;2023-04-26T11:18:43;97507.13;;;20.53;48.26
70952;BME280;69214;55.880;37.542;2023-04-26T11:21:09;97508.28;;;20.52;47.75
70952;BME280;69214;55.880;37.542;2023-04-26T11:23:37;97519.34;;;20.52;46.83
70952;BME280;69214;55.880;37.542;2023-04-26T11:26:06;97529.00;;;20.34;47.60
70952;BME280;69214;55.880;37.542;2023-04-26T11:28:34;97521.47;;;20.22;48.40
70952;BME280;69214;55.880;37.542;2023-04-26T11:31:02;97522.28;;;20.23;48.21
70952;BME280;69214;55.880;37.542;2023-04-26T11:33:28;97535.94;;;20.07;47.75
70952;BME280;69214;55.880;37.542;2023-04-26T11:35:56;97507.94;;;19.55;48.83
70952;BME280;69214;55.880;37.542;2023-04-26T11:38:25;97520.44;;;19.11;49.68
70952;BME280;69214;55.880;37.542;2023-04-26T11:40:58;97548.09;;;18.72;50.83
70952;BME280;69214;55.880;37.542;2023-04-26T11:43:37;97548.72;;;18.23;51.61
70952;BME280;69214;55.880;37.542;2023-04-26T11:46:07;97545.38;;;18.00;52.50
70952;BME280;69214;55.880;37.542;2023-04-26T11:48:35;97553.81;;;18.03;52.90
70952;BME280;69214;55.880;37.542;2023-04-26T11:51:03;97547.28;;;18.17;52.86
70952;BME280;69214;55.880;37.542;2023-04-26T11:53:37;97539.13;;;18.29;51.64
70952;BME280;69214;55.880;37.542;2023-04-26T11:56:12;97549.44;;;18.58;52.03
70952;BME280;69214;55.880;37.542;2023-04-26T11:58:38;97556.09;;;19.03;50.68
70952;BME280;69214;55.880;37.542;2023-04-26T12:01:04;97552.03;;;19.30;50.28
70952;BME280;69214;55.880;37.542;2023-04-26T12:03:31;97566.06;;;19.46;49.09
70952;BME280;69214;55.880;37.542;2023-04-26T12:05:59;97559.88;;;19.49;49.39
70952;BME280;69214;55.880;37.542;2023-04-26T12:08:26;97548.97;;;19.53;49.35
70952;BME280;69214;55.880;37.542;2023-04-26T12:10:52;97558.47;;;19.64;49.06
70952;BME280;69214;55.880;37.542;2023-04-26T12:13:19;97561.19;;;19.72;49.06
70952;BME280;69214;55.880;37.542;2023-04-26T12:15:45;97549.38;;;19.63;48.67
70952;BME280;69214;55.880;37.542;2023-04-26T12:18:12;97562.66;;;19.70;48.50
70952;BME280;69214;55.880;37.542;2023-04-26T12:20:39;97554.38;;;19.70;48.00
70952;BME280;69214;55.880;37.542;2023-04-26T12:23:10;97540.31;;;19.54;48.12
70952;BME280;69214;55.880;37.542;2023-04-26T12:25:37;97573.13;;;19.64;47.43
70952;BME280;69214;55.880;37.542;2023-04-26T12:28:05;97560.31;;;19.81;47.54
70952;BME280;69214;55.880;37.542;2023-04-26T12:30:37;97553.78;;;19.97;47.25
70952;BME280;69214;55.880;37.542;2023-04-26T12:33:03;97546.81;;;20.12;46.46
70952;BME280;69214;55.880;37.542;2023-04-26T12:35:30;97544.59;;;20.05;46.49
70952;BME280;69214;55.880;37.542;2023-04-26T12:37:56;97571.84;;;19.83;46.83
70952;BME280;69214;55.880;37.542;2023-04-26T12:40:25;97567.81;;;19.51;47.86
70952;BME280;69214;55.880;37.542;2023-04-26T12:42:51;97575.59;;;19.07;48.66
70952;BME280;69214;55.880;37.542;2023-04-26T12:45:17;97581.13;;;18.60;49.13
70952;BME280;69214;55.880;37.542;2023-04-26T12:47:46;97585.25;;;18.28;50.17
70952;BME280;69214;55.880;37.542;2023-04-26T12:50:13;97593.72;;;18.32;50.52
70952;BME280;69214;55.880;37.542;2023-04-26T12:52:40;97588.19;;;18.23;50.60
70952;BME280;69214;55.880;37.542;2023-04-26T12:55:11;97590.81;;;18.02;50.30
70952;BME280;69214;55.880;37.542;2023-04-26T12:57:38;97592.13;;;17.79;51.40
70952;BME280;69214;55.880;37.542;2023-04-26T13:00:08;97591.66;;;17.77;51.43
70952;BME280;69214;55.880;37.542;2023-04-26T13:02:34;97599.75;;;17.73;51.73
70952;BME280;69214;55.880;37.542;2023-04-26T13:05:01;97605.59;;;17.72;51.14
70952;BME280;69214;55.880;37.542;2023-04-26T13:07:33;97591.75;;;17.55;51.05
70952;BME280;69214;55.880;37.542;2023-04-26T13:09:59;97585.59;;;17.40;51.94
70952;BME280;69214;55.880;37.542;2023-04-26T13:12:26;97603.25;;;17.31;53.14